Time;durP1;ratioP1;P1;durP2;ratioP2;P2;SDS_P1;SDS_P2;PMS_P1;PMS_P2;Temp;Humidity;BMP_temperature;BMP_pressure;BME280_temperature;BME280_humidity;BME280_pressure;Samples;Min_cycle;Max_cycle;Signal;HPM_P1;HPM_P2
2023/09/08 00:00:50;;;;;;;6.30;4.00;;;;;;;;;;5073048;28;20230;-58
2023/09/08 00:03:30;;;;;;;5.10;3.40;;;;;;;;;;5073862;28;20194;-58
2023/09/08 00:05:57;;;;;;;6.38;3.50;;;;;;;;;;5073466;28;20699;-59
2023/09/08 00:08:24;;;;;;;11.63;3.72;;;;;;;;;;5072612;28;20199;-56
2023/09/08 00:10:52;;;;;;;4.55;3.03;;;;;;;;;;5071568;28;20207;-57
2023/09/08 00:13:20;;;;;;;6.35;3.53;;;;;;;;;;5071123;28;20712;-58
2023/09/08 00:15:47;;;;;;;8.75;4.00;;;;;;;;;;5035240;28;20246;-56
2023/09/08 00:18:14;;;;;;;7.22;3.30;;;;;;;;;;5072311;28;20560;-58
2023/09/08 00:20:42;;;;;;;6.38;3.05;;;;;;;;;;5073540;28;20246;-59
2023/09/08 00:23:09;;;;;;;5.63;3.95;;;;;;;;;;5066660;28;20652;-58
2023/09/08 00:25:36;;;;;;;5.00;3.33;;;;;;;;;;5052645;28;20504;-57
2023/09/08 00:28:03;;;;;;;6.93;3.25;;;;;;;;;;5052628;28;20342;-58
2023/09/08 00:30:31;;;;;;;5.65;3.83;;;;;;;;;;5072446;28;20655;-57
2023/09/08 00:32:58;;;;;;;5.85;3.53;;;;;;;;;;5072116;28;20664;-58
2023/09/08 00:35:26;;;;;;;6.13;3.88;;;;;;;;;;5071810;28;20199;-59
2023/09/08 00:37:53;;;;;;;7.13;3.75;;;;;;;;;;5071302;28;20731;-58
2023/09/08 00:40:21;;;;;;;8.43;3.65;;;;;;;;;;5071083;28;20231;-59
2023/09/08 00:42:48;;;;;;;5.95;3.60;;;;;;;;;;5072295;28;20567;-58
2023/09/08 00:45:15;;;;;;;7.25;3.83;;;;;;;;;;5071774;28;20203;-57
2023/09/08 00:47:42;;;;;;;5.22;3.28;;;;;;;;;;5071906;28;20201;-59
2023/09/08 00:50:10;;;;;;;5.55;3.60;;;;;;;;;;5072252;28;20265;-58
2023/09/08 00:52:37;;;;;;;5.20;3.55;;;;;;;;;;5060180;28;20215;-58
2023/09/08 00:55:04;;;;;;;5.63;3.65;;;;;;;;;;5051889;28;20207;-57
2023/09/08 00:57:32;;;;;;;6.75;3.80;;;;;;;;;;5051205;28;20203;-58
2023/09/08 01:00:00;;;;;;;6.57;3.70;;;;;;;;;;5052156;28;20228;-57
2023/09/08 01:02:27;;;;;;;6.20;4.00;;;;;;;;;;5051310;28;20346;-57
2023/09/08 01:04:55;;;;;;;6.95;3.80;;;;;;;;;;5050556;28;20204;-57
2023/09/08 01:07:22;;;;;;;6.32;3.80;;;;;;;;;;5054487;28;20200;-59
2023/09/08 01:09:49;;;;;;;6.90;3.58;;;;;;;;;;5054311;28;20204;-59
2023/09/08 01:12:16;;;;;;;6.53;3.58;;;;;;;;;;5056465;28;20207;-57
2023/09/08 01:14:44;;;;;;;5.32;3.70;;;;;;;;;;5054333;28;20236;-58
2023/09/08 01:17:12;;;;;;;10.07;3.65;;;;;;;;;;5055987;28;20231;-60
2023/09/08 01:19:41;;;;;;;5.15;3.70;;;;;;;;;;5056689;28;20825;-59
2023/09/08 01:22:20;;;;;;;6.30;3.47;;;;;;;;;;5056574;28;20731;-58
2023/09/08 01:25:13;;;;;;;7.13;4.10;;;;;;;;;;5054270;28;20552;-56
2023/09/08 01:27:45;;;;;;;9.52;3.97;;;;;;;;;;5054117;28;20215;-59
2023/09/08 01:30:13;;;;;;;8.75;4.65;;;;;;;;;;5054663;28;20742;-57
2023/09/08 01:32:40;;;;;;;9.68;4.15;;;;;;;;;;5056171;28;20249;-59
2023/09/08 01:35:08;;;;;;;8.43;4.50;;;;;;;;;;5055266;28;20669;-55
2023/09/08 01:37:35;;;;;;;8.27;3.72;;;;;;;;;;5053369;28;20195;-59
2023/09/08 01:40:03;;;;;;;12.57;3.55;;;;;;;;;;5055945;28;20232;-58
2023/09/08 01:42:30;;;;;;;7.30;3.85;;;;;;;;;;5055829;28;20204;-57
2023/09/08 01:44:57;;;;;;;8.07;4.10;;;;;;;;;;5054883;28;20206;-56
2023/09/08 01:47:24;;;;;;;6.68;3.80;;;;;;;;;;5054121;28;20275;-59
2023/09/08 01:49:51;;;;;;;6.75;3.97;;;;;;;;;;5055572;28;20208;-57
2023/09/08 01:52:18;;;;;;;10.63;4.25;;;;;;;;;;5055836;28;20211;-59
2023/09/08 01:54:46;;;;;;;6.55;3.75;;;;;;;;;;5054402;28;20208;-59
2023/09/08 01:57:13;;;;;;;8.57;3.97;;;;;;;;;;5055278;28;20741;-60
2023/09/08 01:59:40;;;;;;;6.88;3.92;;;;;;;;;;5053174;28;20670;-55
2023/09/08 02:02:07;;;;;;;6.90;3.47;;;;;;;;;;5054364;28;20208;-59
2023/09/08 02:04:34;;;;;;;6.85;3.55;;;;;;;;;;5052499;28;20229;-58
2023/09/08 02:07:03;;;;;;;8.48;3.80;;;;;;;;;;5053569;28;20261;-57
2023/09/08 02:09:32;;;;;;;7.22;4.13;;;;;;;;;;5054299;28;20211;-58
2023/09/08 02:12:00;;;;;;;6.05;3.67;;;;;;;;;;5054143;28;20217;-56
2023/09/08 02:14:29;;;;;;;9.65;3.95;;;;;;;;;;5054965;28;20293;-59
2023/09/08 02:16:56;;;;;;;8.70;4.55;;;;;;;;;;5052592;28;20253;-59
2023/09/08 02:19:24;;;;;;;4.45;3.45;;;;;;;;;;5053702;28;20267;-60
2023/09/08 02:21:51;;;;;;;5.70;3.75;;;;;;;;;;5052620;28;20203;-57
2023/09/08 02:24:18;;;;;;;6.82;3.88;;;;;;;;;;5054178;28;20220;-58
2023/09/08 02:26:46;;;;;;;10.43;3.80;;;;;;;;;;5052051;28;20712;-58
2023/09/08 02:29:14;;;;;;;7.45;3.85;;;;;;;;;;5053387;28;20204;-59
2023/09/08 02:31:41;;;;;;;7.95;3.83;;;;;;;;;;5053685;28;20831;-58
2023/09/08 02:34:09;;;;;;;6.00;3.75;;;;;;;;;;5053776;28;20203;-57
2023/09/08 02:36:36;;;;;;;6.57;3.65;;;;;;;;;;5053185;28;20200;-59
2023/09/08 02:39:04;;;;;;;8.93;3.78;;;;;;;;;;5052817;28;20207;-58
2023/09/08 02:41:31;;;;;;;9.65;4.15;;;;;;;;;;5051569;28;20759;-57
2023/09/08 02:44:01;;;;;;;7.45;3.88;;;;;;;;;;5052586;28;20192;-59
2023/09/08 02:46:28;;;;;;;6.65;4.10;;;;;;;;;;5053175;28;20208;-58
2023/09/08 02:48:56;;;;;;;8.80;3.95;;;;;;;;;;5053434;28;20277;-58
2023/09/08 02:51:23;;;;;;;6.88;3.90;;;;;;;;;;5051627;28;20196;-59
2023/09/08 02:53:51;;;;;;;8.13;3.92;;;;;;;;;;5053531;28;20211;-57
2023/09/08 02:56:18;;;;;;;11.15;4.40;;;;;;;;;;5053300;28;20275;-57
2023/09/08 02:58:45;;;;;;;10.65;3.83;;;;;;;;;;5053321;28;20563;-58
2023/09/08 03:01:19;;;;;;;7.50;3.58;;;;;;;;;;5053815;28;20223;-57
2023/09/08 03:03:47;;;;;;;7.15;3.88;;;;;;;;;;5053035;28;20195;-57
2023/09/08 03:06:17;;;;;;;5.53;3.35;;;;;;;;;;5053029;28;20220;-59
2023/09/08 03:08:45;;;;;;;6.65;3.45;;;;;;;;;;5053723;28;20227;-57
2023/09/08 03:11:12;;;;;;;8.60;3.25;;;;;;;;;;5052364;28;20222;-58
2023/09/08 03:13:40;;;;;;;5.50;3.15;;;;;;;;;;5052853;28;20204;-57
2023/09/08 03:16:08;;;;;;;6.43;3.58;;;;;;;;;;5053280;28;20251;-57
2023/09/08 03:18:36;;;;;;;7.55;3.78;;;;;;;;;;5051680;28;20219;-55
2023/09/08 03:21:09;;;;;;;9.52;3.15;;;;;;;;;;5050805;28;20222;-57
2023/09/08 03:23:38;;;;;;;6.70;3.90;;;;;;;;;;5034718;28;20188;-57
2023/09/08 03:26:06;;;;;;;9.63;3.45;;;;;;;;;;5051185;28;20200;-59
2023/09/08 03:28:34;;;;;;;9.32;3.55;;;;;;;;;;5050666;28;20546;-59
2023/09/08 03:31:02;;;;;;;7.80;3.58;;;;;;;;;;5052331;28;20200;-60
2023/09/08 03:33:32;;;;;;;8.32;3.55;;;;;;;;;;5050875;28;20217;-59
2023/09/08 03:36:00;;;;;;;7.97;3.55;;;;;;;;;;5068143;28;20210;-60
2023/09/08 03:38:29;;;;;;;6.63;3.20;;;;;;;;;;5070329;28;20203;-60
2023/09/08 03:40:56;;;;;;;6.25;3.78;;;;;;;;;;5071722;28;20235;-60
2023/09/08 03:43:24;;;;;;;8.85;3.53;;;;;;;;;;5071919;28;20203;-61
2023/09/08 03:45:51;;;;;;;7.15;4.10;;;;;;;;;;5072267;28;20204;-60
2023/09/08 03:48:19;;;;;;;8.25;3.63;;;;;;;;;;5071101;28;20570;-64
2023/09/08 03:50:46;;;;;;;8.60;2.90;;;;;;;;;;5071487;28;20716;-61
2023/09/08 03:53:14;;;;;;;8.95;3.30;;;;;;;;;;5077475;28;20203;-61
2023/09/08 03:55:41;;;;;;;9.48;3.20;;;;;;;;;;5082156;28;20199;-59
2023/09/08 03:58:09;;;;;;;7.43;3.13;;;;;;;;;;5083634;28;20559;-61
2023/09/08 04:00:36;;;;;;;4.82;3.10;;;;;;;;;;5081058;28;20223;-60
2023/09/08 04:03:04;;;;;;;4.97;3.38;;;;;;;;;;5064886;28;20257;-60
2023/09/08 04:05:31;;;;;;;5.82;3.40;;;;;;;;;;5052992;28;20302;-62
2023/09/08 04:07:59;;;;;;;7.65;3.05;;;;;;;;;;5057486;28;21149;-59
2023/09/08 04:10:27;;;;;;;5.38;3.38;;;;;;;;;;5053722;28;20227;-62
2023/09/08 04:12:54;;;;;;;7.55;3.40;;;;;;;;;;5067501;28;20228;-60
2023/09/08 04:15:22;;;;;;;5.95;3.45;;;;;;;;;;5050183;28;20251;-59
2023/09/08 04:17:50;;;;;;;8.18;3.78;;;;;;;;;;5071528;28;20223;-58
2023/09/08 04:20:17;;;;;;;8.60;3.75;;;;;;;;;;5066215;28;20231;-58
2023/09/08 04:22:45;;;;;;;4.43;3.20;;;;;;;;;;5063432;28;20230;-59
2023/09/08 04:25:12;;;;;;;6.90;3.55;;;;;;;;;;5071974;28;20704;-59
2023/09/08 04:27:40;;;;;;;7.80;3.33;;;;;;;;;;5070353;28;20242;-61
2023/09/08 04:30:07;;;;;;;7.18;3.60;;;;;;;;;;5070869;28;20223;-61
2023/09/08 04:32:37;;;;;;;7.03;3.58;;;;;;;;;;5072231;28;20223;-60
2023/09/08 04:35:05;;;;;;;9.48;3.78;;;;;;;;;;5072241;28;20250;-59
2023/09/08 04:37:34;;;;;;;5.38;3.38;;;;;;;;;;5070597;28;20734;-63
2023/09/08 04:40:02;;;;;;;8.35;3.97;;;;;;;;;;5072297;28;20235;-62
2023/09/08 04:42:31;;;;;;;6.82;4.00;;;;;;;;;;5074597;28;20229;-60
2023/09/08 04:44:59;;;;;;;5.18;3.47;;;;;;;;;;5074015;28;20231;-61
2023/09/08 04:47:27;;;;;;;4.88;3.40;;;;;;;;;;5073744;28;20218;-61
2023/09/08 04:49:54;;;;;;;6.63;3.83;;;;;;;;;;5075756;28;20223;-62
2023/09/08 04:52:22;;;;;;;6.82;3.40;;;;;;;;;;5073438;28;20586;-61
2023/09/08 04:54:50;;;;;;;8.07;3.33;;;;;;;;;;5074045;28;20239;-61
2023/09/08 04:57:17;;;;;;;6.57;3.70;;;;;;;;;;5074159;28;20700;-58
2023/09/08 04:59:52;;;;;;;5.03;3.63;;;;;;;;;;5073224;28;20226;-58
2023/09/08 05:02:20;;;;;;;9.15;3.80;;;;;;;;;;5074558;28;20285;-61
2023/09/08 05:04:48;;;;;;;5.70;3.63;;;;;;;;;;5074884;28;20218;-63
2023/09/08 05:07:16;;;;;;;7.50;3.58;;;;;;;;;;5073960;28;20223;-61
2023/09/08 05:09:43;;;;;;;9.02;3.78;;;;;;;;;;5066996;28;20222;-62
2023/09/08 05:12:11;;;;;;;6.90;4.13;;;;;;;;;;5056548;28;20249;-61
2023/09/08 05:14:38;;;;;;;9.05;3.83;;;;;;;;;;5064186;28;20649;-62
2023/09/08 05:17:05;;;;;;;6.75;3.60;;;;;;;;;;5054284;28;20630;-61
2023/09/08 05:19:32;;;;;;;6.85;3.63;;;;;;;;;;5054461;28;20220;-60
2023/09/08 05:22:00;;;;;;;6.03;3.45;;;;;;;;;;5056229;28;20235;-60
2023/09/08 05:24:28;;;;;;;8.93;3.88;;;;;;;;;;5054826;28;20204;-57
2023/09/08 05:26:57;;;;;;;6.55;3.88;;;;;;;;;;5053495;28;20210;-61
2023/09/08 05:29:25;;;;;;;8.30;3.67;;;;;;;;;;5055120;28;20291;-60
2023/09/08 05:31:53;;;;;;;6.30;3.33;;;;;;;;;;5055797;28;20208;-59
2023/09/08 05:34:21;;;;;;;7.85;3.30;;;;;;;;;;5054434;28;20290;-61
2023/09/08 05:36:48;;;;;;;7.90;4.03;;;;;;;;;;5054654;28;20191;-61
2023/09/08 05:39:17;;;;;;;7.15;4.07;;;;;;;;;;5055726;28;20677;-61
2023/09/08 05:41:45;;;;;;;7.28;4.07;;;;;;;;;;5055877;28;20626;-61
2023/09/08 05:44:12;;;;;;;8.85;3.88;;;;;;;;;;5056043;28;20207;-60
2023/09/08 05:46:40;;;;;;;7.03;3.55;;;;;;;;;;5053902;28;20196;-59
2023/09/08 05:49:08;;;;;;;5.50;3.33;;;;;;;;;;5054444;28;20227;-59
2023/09/08 05:51:35;;;;;;;7.68;3.50;;;;;;;;;;5055672;28;20207;-59
2023/09/08 05:54:02;;;;;;;7.63;3.63;;;;;;;;;;5038090;28;20734;-61
2023/09/08 05:56:34;;;;;;;7.05;3.40;;;;;;;;;;5054620;28;20295;-61
2023/09/08 05:59:01;;;;;;;7.15;4.00;;;;;;;;;;5054472;28;20283;-61
2023/09/08 06:01:30;;;;;;;7.82;3.75;;;;;;;;;;5054716;28;20227;-61
2023/09/08 06:03:58;;;;;;;6.07;3.70;;;;;;;;;;5054049;28;20238;-61
2023/09/08 06:06:29;;;;;;;10.07;3.72;;;;;;;;;;5054395;28;20204;-59
2023/09/08 06:08:56;;;;;;;8.90;4.00;;;;;;;;;;5052227;28;20215;-60
2023/09/08 06:11:23;;;;;;;8.90;3.67;;;;;;;;;;5052634;28;20212;-57
2023/09/08 06:13:52;;;;;;;9.60;4.10;;;;;;;;;;5054318;28;20212;-58
2023/09/08 06:16:19;;;;;;;10.35;4.35;;;;;;;;;;5053834;28;20290;-61
2023/09/08 06:18:46;;;;;;;6.50;4.18;;;;;;;;;;5054315;28;20211;-60
2023/09/08 06:21:18;;;;;;;5.97;3.58;;;;;;;;;;5055310;28;20212;-61
2023/09/08 06:23:45;;;;;;;10.35;4.45;;;;;;;;;;5053254;28;20208;-60
2023/09/08 06:26:14;;;;;;;9.18;3.60;;;;;;;;;;5054889;28;20207;-59
2023/09/08 06:28:43;;;;;;;10.38;3.85;;;;;;;;;;5055759;28;20204;-60
2023/09/08 06:31:10;;;;;;;8.57;3.63;;;;;;;;;;5054084;28;20219;-60
2023/09/08 06:33:39;;;;;;;8.85;3.63;;;;;;;;;;5053886;28;20257;-60
2023/09/08 06:36:07;;;;;;;9.73;3.95;;;;;;;;;;5053659;28;20211;-60
2023/09/08 06:38:34;;;;;;;7.80;3.72;;;;;;;;;;5053487;28;20212;-60
2023/09/08 06:41:11;;;;;;;6.80;4.07;;;;;;;;;;5052265;28;20569;-61
2023/09/08 06:43:38;;;;;;;6.93;4.03;;;;;;;;;;5053925;28;20286;-61
2023/09/08 06:46:12;;;;;;;8.02;4.00;;;;;;;;;;5053850;28;20687;-59
2023/09/08 06:48:39;;;;;;;9.57;3.80;;;;;;;;;;5053336;28;20211;-61
2023/09/08 06:51:07;;;;;;;7.80;3.90;;;;;;;;;;5053353;28;20203;-60
2023/09/08 06:53:38;;;;;;;9.27;4.25;;;;;;;;;;5053265;28;20203;-60
2023/09/08 06:56:05;;;;;;;6.18;4.03;;;;;;;;;;5053041;28;20672;-60
2023/09/08 06:58:33;;;;;;;6.55;3.47;;;;;;;;;;5055743;28;20204;-61
2023/09/08 07:01:02;;;;;;;9.60;4.07;;;;;;;;;;5052502;28;20230;-61
2023/09/08 07:03:36;;;;;;;11.88;4.53;;;;;;;;;;5052552;28;20570;-60
2023/09/08 07:06:06;;;;;;;6.88;3.53;;;;;;;;;;5053210;28;20208;-60
2023/09/08 07:08:33;;;;;;;9.23;4.10;;;;;;;;;;5052881;28;20257;-60
2023/09/08 07:11:01;;;;;;;6.97;4.22;;;;;;;;;;5052636;28;20613;-59
2023/09/08 07:13:29;;;;;;;9.90;4.53;;;;;;;;;;5053100;28;20204;-61
2023/09/08 07:15:57;;;;;;;9.27;4.40;;;;;;;;;;5052436;28;20258;-61
2023/09/08 07:18:24;;;;;;;8.50;3.90;;;;;;;;;;5053002;28;20199;-59
2023/09/08 07:20:52;;;;;;;8.48;4.40;;;;;;;;;;5051935;28;20199;-60
2023/09/08 07:23:20;;;;;;;10.55;4.35;;;;;;;;;;5057875;28;20214;-57
2023/09/08 07:25:48;;;;;;;9.35;4.53;;;;;;;;;;5072278;28;20233;-58
2023/09/08 07:28:17;;;;;;;9.18;4.53;;;;;;;;;;5072347;28;20199;-59
2023/09/08 07:30:46;;;;;;;9.23;3.80;;;;;;;;;;5073669;28;20564;-58
2023/09/08 07:33:13;;;;;;;8.70;5.03;;;;;;;;;;5073617;28;20199;-59
2023/09/08 07:35:42;;;;;;;8.38;4.47;;;;;;;;;;5071701;28;20214;-59
2023/09/08 07:38:09;;;;;;;14.93;5.18;;;;;;;;;;5070567;28;20203;-58
2023/09/08 07:40:37;;;;;;;10.57;4.63;;;;;;;;;;5072793;28;20258;-60
2023/09/08 07:43:05;;;;;;;10.43;4.90;;;;;;;;;;5072659;28;20242;-58
2023/09/08 07:45:33;;;;;;;8.85;4.15;;;;;;;;;;5071962;28;20211;-58
2023/09/08 07:48:00;;;;;;;11.20;5.15;;;;;;;;;;5073413;28;20203;-60
2023/09/08 07:50:28;;;;;;;8.43;4.68;;;;;;;;;;5073307;28;20208;-60
2023/09/08 07:52:56;;;;;;;11.65;5.75;;;;;;;;;;5073850;28;20203;-59
2023/09/08 07:55:27;;;;;;;9.95;5.22;;;;;;;;;;5073248;28;20199;-58
2023/09/08 07:57:55;;;;;;;10.82;5.13;;;;;;;;;;5061323;28;20204;-59
2023/09/08 08:00:22;;;;;;;9.38;4.50;;;;;;;;;;5053262;28;20204;-59
2023/09/08 08:02:51;;;;;;;10.23;4.93;;;;;;;;;;5052871;28;20293;-59
2023/09/08 08:05:18;;;;;;;11.52;5.05;;;;;;;;;;5052919;28;20335;-60
2023/09/08 08:07:45;;;;;;;11.43;4.97;;;;;;;;;;5053349;28;20200;-60
2023/09/08 08:10:13;;;;;;;12.30;4.68;;;;;;;;;;5053065;28;20219;-59
2023/09/08 08:12:41;;;;;;;9.10;4.53;;;;;;;;;;5053419;28;20206;-61
2023/09/08 08:15:12;;;;;;;8.68;4.70;;;;;;;;;;5052206;28;20234;-60
2023/09/08 08:17:40;;;;;;;7.82;3.95;;;;;;;;;;5053263;28;20658;-60
2023/09/08 08:20:10;;;;;;;11.85;4.00;;;;;;;;;;5053371;28;20200;-60
2023/09/08 08:22:37;;;;;;;7.90;3.90;;;;;;;;;;5052818;28;20258;-59
2023/09/08 08:25:05;;;;;;;11.68;3.92;;;;;;;;;;5052972;28;20204;-59
2023/09/08 08:27:32;;;;;;;8.57;4.00;;;;;;;;;;5052951;28;20196;-60
2023/09/08 08:30:00;;;;;;;5.15;3.25;;;;;;;;;;5053157;28;20250;-59
2023/09/08 08:32:28;;;;;;;10.27;3.97;;;;;;;;;;5052795;28;20669;-60
2023/09/08 08:34:56;;;;;;;6.50;3.25;;;;;;;;;;5052741;28;20211;-59
2023/09/08 08:37:24;;;;;;;9.35;3.40;;;;;;;;;;5055684;28;20204;-59
2023/09/08 08:39:51;;;;;;;5.97;3.33;;;;;;;;;;5073023;28;20195;-60
2023/09/08 08:42:22;;;;;;;10.82;3.65;;;;;;;;;;5072604;28;20226;-59
2023/09/08 08:44:49;;;;;;;5.68;3.30;;;;;;;;;;5073170;28;20194;-60
2023/09/08 08:47:19;;;;;;;6.68;3.58;;;;;;;;;;5072741;28;20278;-59
2023/09/08 08:49:48;;;;;;;8.20;3.40;;;;;;;;;;5072267;28;20207;-59
2023/09/08 08:52:15;;;;;;;8.05;3.22;;;;;;;;;;5071054;28;20782;-59
2023/09/08 08:54:42;;;;;;;6.25;3.20;;;;;;;;;;5072731;28;20199;-60
2023/09/08 08:57:11;;;;;;;6.40;3.33;;;;;;;;;;5072992;28;20230;-60
2023/09/08 08:59:41;;;;;;;6.70;3.03;;;;;;;;;;5072683;28;20199;-59
2023/09/08 09:02:09;;;;;;;6.57;3.08;;;;;;;;;;5072832;28;20235;-59
2023/09/08 09:04:38;;;;;;;4.28;2.85;;;;;;;;;;5072311;28;20199;-60
2023/09/08 09:07:07;;;;;;;3.65;1.88;;;;;;;;;;5071657;28;20200;-59
2023/09/08 09:09:35;;;;;;;6.97;2.30;;;;;;;;;;5072668;28;20208;-60
2023/09/08 09:12:02;;;;;;;4.68;2.10;;;;;;;;;;5072685;28;20210;-60
2023/09/08 09:14:34;;;;;;;2.90;1.98;;;;;;;;;;5072551;28;20235;-60
2023/09/08 09:17:04;;;;;;;2.55;1.85;;;;;;;;;;5072316;28;20253;-60
2023/09/08 09:19:31;;;;;;;3.30;1.77;;;;;;;;;;5072684;28;20210;-59
2023/09/08 09:21:59;;;;;;;3.42;2.13;;;;;;;;;;5071476;28;20219;-59
2023/09/08 09:24:33;;;;;;;5.80;1.88;;;;;;;;;;5072366;28;20228;-59
2023/09/08 09:27:01;;;;;;;4.10;2.15;;;;;;;;;;5075211;28;20235;-61
2023/09/08 09:29:29;;;;;;;4.63;2.17;;;;;;;;;;5075876;28;20199;-59
2023/09/08 09:31:59;;;;;;;3.42;2.05;;;;;;;;;;5075934;28;20246;-60
2023/09/08 09:34:27;;;;;;;4.32;2.22;;;;;;;;;;5075244;28;20659;-60
2023/09/08 09:36:54;;;;;;;3.20;1.88;;;;;;;;;;5076027;28;20207;-58
2023/09/08 09:39:26;;;;;;;3.05;2.05;;;;;;;;;;5076287;28;20195;-59
2023/09/08 09:41:57;;;;;;;4.22;1.88;;;;;;;;;;5076359;28;20305;-60
2023/09/08 09:44:24;;;;;;;5.30;2.10;;;;;;;;;;5076592;28;20211;-60
2023/09/08 09:46:52;;;;;;;3.95;1.98;;;;;;;;;;5074850;28;20635;-58
2023/09/08 09:49:20;;;;;;;3.47;2.08;;;;;;;;;;5075643;28;20200;-60
2023/09/08 09:51:49;;;;;;;4.20;2.05;;;;;;;;;;5075755;28;20210;-60
2023/09/08 09:54:17;;;;;;;2.65;1.83;;;;;;;;;;5075615;28;20257;-61
2023/09/08 09:56:45;;;;;;;3.03;1.98;;;;;;;;;;5075302;28;20200;-59
2023/09/08 09:59:13;;;;;;;4.53;2.03;;;;;;;;;;5076075;28;20199;-60
2023/09/08 10:01:42;;;;;;;3.67;1.90;;;;;;;;;;5075607;28;20283;-61
2023/09/08 10:04:10;;;;;;;2.22;1.63;;;;;;;;;;5075684;28;20206;-61
2023/09/08 10:06:39;;;;;;;3.80;1.90;;;;;;;;;;5075244;28;20253;-58
2023/09/08 10:09:13;;;;;;;4.55;2.10;;;;;;;;;;5074877;28;20565;-55
2023/09/08 10:11:44;;;;;;;3.83;2.10;;;;;;;;;;5075307;28;20273;-59
2023/09/08 10:14:13;;;;;;;3.47;1.85;;;;;;;;;;5039705;28;20203;-60
2023/09/08 10:16:42;;;;;;;2.83;1.50;;;;;;;;;;5075289;28;20233;-60
2023/09/08 10:19:10;;;;;;;4.10;1.73;;;;;;;;;;5075943;28;20200;-59
2023/09/08 10:21:41;;;;;;;6.28;2.20;;;;;;;;;;5075325;28;20570;-60
2023/09/08 10:24:24;;;;;;;7.93;2.28;;;;;;;;;;5075158;28;20598;-57
2023/09/08 10:27:02;;;;;;;3.25;1.77;;;;;;;;;;5074695;28;20196;-60
2023/09/08 10:29:29;;;;;;;3.38;1.67;;;;;;;;;;5073426;28;20569;-59
2023/09/08 10:31:57;;;;;;;3.13;1.83;;;;;;;;;;5075160;28;20211;-60
2023/09/08 10:34:25;;;;;;;5.78;1.95;;;;;;;;;;5073923;28;20207;-59
2023/09/08 10:36:52;;;;;;;3.22;1.98;;;;;;;;;;5073285;28;20203;-60
2023/09/08 10:39:38;;;;;;;7.35;1.90;;;;;;;;;;5073887;28;20207;-59
2023/09/08 10:42:32;;;;;;;4.43;2.15;;;;;;;;;;5075042;28;20230;-59
2023/09/08 10:45:04;;;;;;;9.18;1.90;;;;;;;;;;5072234;28;20660;-58
2023/09/08 10:47:56;;;;;;;3.95;1.92;;;;;;;;;;5073474;28;20210;-59
2023/09/08 10:50:32;;;;;;;3.65;2.00;;;;;;;;;;5068505;28;20209;-60
2023/09/08 10:53:10;;;;;;;2.70;1.88;;;;;;;;;;5074907;28;20308;-60
2023/09/08 10:55:51;;;;;;;5.43;2.00;;;;;;;;;;5074432;28;20206;-60
2023/09/08 10:58:40;;;;;;;3.40;1.95;;;;;;;;;;5074495;28;20546;-60
2023/09/08 11:01:13;;;;;;;3.20;2.00;;;;;;;;;;5074537;28;20206;-60
2023/09/08 11:03:43;;;;;;;3.25;2.00;;;;;;;;;;5073906;28;20269;-59
2023/09/08 11:06:14;;;;;;;5.07;2.33;;;;;;;;;;5074055;28;20252;-60
2023/09/08 11:08:43;;;;;;;4.13;1.95;;;;;;;;;;5075269;28;20183;-60
2023/09/08 11:11:15;;;;;;;7.93;2.40;;;;;;;;;;5074458;28;20203;-59
2023/09/08 11:13:45;;;;;;;6.65;1.90;;;;;;;;;;5074647;28;20214;-60
2023/09/08 11:16:15;;;;;;;3.72;2.13;;;;;;;;;;5074316;28;20223;-60
2023/09/08 11:18:43;;;;;;;3.60;2.25;;;;;;;;;;5074400;28;20665;-59
2023/09/08 11:21:11;;;;;;;3.75;2.08;;;;;;;;;;5074158;28;20568;-59
2023/09/08 11:23:38;;;;;;;5.95;2.35;;;;;;;;;;5074646;28;20227;-60
2023/09/08 11:26:06;;;;;;;3.28;2.17;;;;;;;;;;5074426;28;20211;-60
2023/09/08 11:28:33;;;;;;;4.97;1.98;;;;;;;;;;5074109;28;20188;-60
2023/09/08 11:31:03;;;;;;;6.53;1.85;;;;;;;;;;5073373;28;20207;-60
2023/09/08 11:33:34;;;;;;;4.25;2.05;;;;;;;;;;5073504;28;20302;-58
2023/09/08 11:36:01;;;;;;;5.15;2.05;;;;;;;;;;5073593;28;20652;-59
2023/09/08 11:38:29;;;;;;;3.22;2.00;;;;;;;;;;5073798;28;20675;-59
2023/09/08 11:40:58;;;;;;;2.15;1.55;;;;;;;;;;5074008;28;20672;-60
2023/09/08 11:43:26;;;;;;;4.28;2.22;;;;;;;;;;5073522;28;20224;-59
2023/09/08 11:45:53;;;;;;;3.95;1.85;;;;;;;;;;5072409;28;20656;-59
2023/09/08 11:48:20;;;;;;;5.10;1.70;;;;;;;;;;5073585;28;20295;-59
2023/09/08 11:50:48;;;;;;;3.63;1.80;;;;;;;;;;5073560;28;20203;-60
2023/09/08 11:53:19;;;;;;;4.45;1.85;;;;;;;;;;5072678;28;20207;-58
2023/09/08 11:55:47;;;;;;;10.80;1.50;;;;;;;;;;5072462;28;20206;-60
2023/09/08 11:58:14;;;;;;;3.00;1.60;;;;;;;;;;5072200;28;20210;-60
2023/09/08 12:00:43;;;;;;;4.03;1.50;;;;;;;;;;5072451;28;20221;-61
2023/09/08 12:03:17;;;;;;;4.25;1.83;;;;;;;;;;5073140;28;20227;-61
2023/09/08 12:05:51;;;;;;;5.93;1.42;;;;;;;;;;5073452;28;20572;-60
2023/09/08 12:08:18;;;;;;;7.75;2.08;;;;;;;;;;5067832;28;20200;-59
2023/09/08 12:10:45;;;;;;;3.78;1.70;;;;;;;;;;5073694;28;20210;-59
2023/09/08 12:13:14;;;;;;;2.05;1.23;;;;;;;;;;5060859;28;20243;-59
2023/09/08 12:15:43;;;;;;;4.20;1.63;;;;;;;;;;5052749;28;20739;-58
2023/09/08 12:18:12;;;;;;;3.17;1.70;;;;;;;;;;5053314;28;20680;-59
2023/09/08 12:20:40;;;;;;;3.75;2.05;;;;;;;;;;5053503;28;20210;-59
2023/09/08 12:23:19;;;;;;;5.20;1.92;;;;;;;;;;5053577;28;20223;-60
2023/09/08 12:25:48;;;;;;;4.03;1.85;;;;;;;;;;5063127;28;20207;-60
2023/09/08 12:28:17;;;;;;;3.08;1.83;;;;;;;;;;5073680;28;20264;-60
2023/09/08 12:30:45;;;;;;;3.75;1.60;;;;;;;;;;5072865;28;20227;-59
2023/09/08 12:33:14;;;;;;;5.78;2.10;;;;;;;;;;5073625;28;20211;-60
2023/09/08 12:35:44;;;;;;;5.22;1.88;;;;;;;;;;5073686;28;20241;-60
2023/09/08 12:38:13;;;;;;;3.97;1.90;;;;;;;;;;5073195;28;20226;-60
2023/09/08 12:40:40;;;;;;;3.33;1.60;;;;;;;;;;5073208;28;20207;-61
2023/09/08 12:43:07;;;;;;;2.38;1.58;;;;;;;;;;5069318;28;20235;-59
2023/09/08 12:45:56;;;;;;;4.22;1.70;;;;;;;;;;5058842;28;20195;-59
2023/09/08 12:48:23;;;;;;;2.72;1.55;;;;;;;;;;5072723;28;20203;-59
2023/09/08 12:50:51;;;;;;;1.70;1.58;;;;;;;;;;5059106;28;20228;-58
2023/09/08 12:53:18;;;;;;;2.17;1.48;;;;;;;;;;5064137;28;20234;-59
2023/09/08 12:55:46;;;;;;;3.67;1.70;;;;;;;;;;5066778;28;20219;-60
2023/09/08 12:58:14;;;;;;;4.22;1.60;;;;;;;;;;5059430;28;20216;-60
2023/09/08 13:00:42;;;;;;;2.58;1.55;;;;;;;;;;5050422;28;20223;-59
2023/09/08 13:03:09;;;;;;;5.85;1.35;;;;;;;;;;5057984;28;20700;-59
2023/09/08 13:05:38;;;;;;;3.25;1.70;;;;;;;;;;5066413;28;20231;-61
2023/09/08 13:08:06;;;;;;;3.05;1.65;;;;;;;;;;5076198;28;20218;-60
2023/09/08 13:10:33;;;;;;;2.83;1.70;;;;;;;;;;5075636;28;20234;-59
2023/09/08 13:13:00;;;;;;;2.97;1.60;;;;;;;;;;5075975;28;20321;-59
2023/09/08 13:15:28;;;;;;;5.13;1.67;;;;;;;;;;5074892;28;20239;-59
2023/09/08 13:17:55;;;;;;;2.40;1.60;;;;;;;;;;5076067;28;20272;-60
2023/09/08 13:20:23;;;;;;;2.67;1.52;;;;;;;;;;5075168;28;20613;-60
2023/09/08 13:22:50;;;;;;;2.88;1.50;;;;;;;;;;5065203;28;20595;-60
2023/09/08 13:25:18;;;;;;;6.55;1.60;;;;;;;;;;5075261;28;20227;-59
2023/09/08 13:27:47;;;;;;;4.65;1.60;;;;;;;;;;5057371;28;20307;-60
2023/09/08 13:30:16;;;;;;;1.40;1.02;;;;;;;;;;5075721;28;20216;-60
2023/09/08 13:32:44;;;;;;;4.60;1.42;;;;;;;;;;5075387;28;20322;-60
2023/09/08 13:35:12;;;;;;;5.18;1.92;;;;;;;;;;5075226;28;20231;-60
2023/09/08 13:37:39;;;;;;;3.08;1.48;;;;;;;;;;5075230;28;20641;-60
2023/09/08 13:40:07;;;;;;;2.83;1.73;;;;;;;;;;5075593;28;20227;-60
2023/09/08 13:42:35;;;;;;;5.53;1.70;;;;;;;;;;5074736;28;20253;-59
2023/09/08 13:45:03;;;;;;;2.80;1.75;;;;;;;;;;5075634;28;20234;-60
2023/09/08 13:47:31;;;;;;;2.17;1.35;;;;;;;;;;5075117;28;20231;-60
2023/09/08 13:50:01;;;;;;;4.63;1.60;;;;;;;;;;5073659;28;20238;-60
2023/09/08 13:52:32;;;;;;;4.65;1.83;;;;;;;;;;5075327;28;20228;-59
2023/09/08 13:55:07;;;;;;;6.38;1.92;;;;;;;;;;5053410;28;20231;-60
2023/09/08 13:57:37;;;;;;;2.55;1.75;;;;;;;;;;5055380;28;20224;-61
2023/09/08 14:00:08;;;;;;;2.45;1.52;;;;;;;;;;5070245;28;20284;-61
2023/09/08 14:02:42;;;;;;;4.80;1.90;;;;;;;;;;5074787;28;20218;-61
2023/09/08 14:05:17;;;;;;;4.03;1.55;;;;;;;;;;5073142;28;20223;-60
2023/09/08 14:07:51;;;;;;;4.78;1.85;;;;;;;;;;5074217;28;20222;-60
2023/09/08 14:10:31;;;;;;;4.13;1.50;;;;;;;;;;5072624;28;20226;-61
2023/09/08 14:13:16;;;;;;;2.45;1.45;;;;;;;;;;5074194;28;20223;-60
2023/09/08 14:15:45;;;;;;;2.38;1.60;;;;;;;;;;5075718;28;20238;-61
2023/09/08 14:18:14;;;;;;;4.47;1.52;;;;;;;;;;5074606;28;20297;-61
2023/09/08 14:20:42;;;;;;;3.40;1.98;;;;;;;;;;5074190;28;20841;-61
2023/09/08 14:23:09;;;;;;;3.55;1.48;;;;;;;;;;5074821;28;20223;-59
2023/09/08 14:25:36;;;;;;;5.22;1.90;;;;;;;;;;5074421;28;20231;-59
2023/09/08 14:28:04;;;;;;;2.67;1.70;;;;;;;;;;5074411;28;20715;-59
2023/09/08 14:30:35;;;;;;;6.00;1.98;;;;;;;;;;5074530;28;20242;-59
2023/09/08 14:33:03;;;;;;;3.90;2.03;;;;;;;;;;5086004;28;20317;-59
2023/09/08 14:35:30;;;;;;;5.22;1.90;;;;;;;;;;5068344;28;20228;-60
2023/09/08 14:37:58;;;;;;;4.43;2.10;;;;;;;;;;5054238;28;20224;-59
2023/09/08 14:40:25;;;;;;;2.92;1.77;;;;;;;;;;5060475;28;20278;-58
2023/09/08 14:42:52;;;;;;;10.98;1.80;;;;;;;;;;5063119;28;20220;-60
2023/09/08 14:45:20;;;;;;;3.13;1.90;;;;;;;;;;5068519;28;20231;-59
2023/09/08 14:47:47;;;;;;;3.28;2.10;;;;;;;;;;5074198;28;20219;-58
2023/09/08 14:50:15;;;;;;;2.58;1.80;;;;;;;;;;5073247;28;20207;-60
2023/09/08 14:52:42;;;;;;;4.35;2.00;;;;;;;;;;5075170;28;20199;-59